McClellan AFB, California
Current Conditions -  °F | °C
As of 4:35 AM on Monday 26 Jan 2015 (Local Time) from KMCC Reporting Station
Haze Haze  
Wind Chill: 36°   Ceiling: Unl
Heat Index: 39°   Visibility: 2.5mi
Dew Point: 39°   Wind: 5mph
Humidity: 100%   Direction: 330°NNW
Pressure: 30.11"   Gusts: NA
Location:  38.66°N, 121.39°W
Report Text: KMCC 261235Z AUTO 33004KT 2 1/2SM BR CLR 04/04 A3011 RMK AO2
Loading
Personal Weather Stations






























Interactive Weather Map New forecast layout! Learn more

10-Day Weather Forecast

Advertisements
Track Severe Weather on mobile